sensor_id;sensor_type;location;lat;lon;timestamp;P1;durP1;ratioP1;P2;durP2;ratioP2
74259;SDS011;62630;55.874;37.516;2023-05-07T00:01:41;3.90;;;2.67;;
74259;SDS011;62630;55.874;37.516;2023-05-07T00:04:06;6.72;;;2.67;;
74259;SDS011;62630;55.874;37.516;2023-05-07T00:06:32;6.28;;;2.63;;
74259;SDS011;62630;55.874;37.516;2023-05-07T00:08:58;5.72;;;3.25;;
74259;SDS011;62630;55.874;37.516;2023-05-07T00:11:24;5.90;;;2.78;;
74259;SDS011;62630;55.874;37.516;2023-05-07T00:13:51;5.63;;;2.70;;
74259;SDS011;62630;55.874;37.516;2023-05-07T00:16:19;4.28;;;2.75;;
74259;SDS011;62630;55.874;37.516;2023-05-07T00:18:45;4.50;;;2.60;;
74259;SDS011;62630;55.874;37.516;2023-05-07T00:21:11;6.38;;;2.42;;
74259;SDS011;62630;55.874;37.516;2023-05-07T00:23:36;4.72;;;2.33;;
74259;SDS011;62630;55.874;37.516;2023-05-07T00:26:02;9.20;;;2.63;;
74259;SDS011;62630;55.874;37.516;2023-05-07T00:28:28;6.47;;;3.00;;
74259;SDS011;62630;55.874;37.516;2023-05-07T00:30:54;3.70;;;2.13;;
74259;SDS011;62630;55.874;37.516;2023-05-07T00:33:20;7.15;;;2.47;;
74259;SDS011;62630;55.874;37.516;2023-05-07T00:35:46;3.67;;;2.35;;
74259;SDS011;62630;55.874;37.516;2023-05-07T00:38:11;3.63;;;2.28;;
74259;SDS011;62630;55.874;37.516;2023-05-07T00:40:37;3.75;;;2.47;;
74259;SDS011;62630;55.874;37.516;2023-05-07T00:43:05;13.77;;;2.92;;
74259;SDS011;62630;55.874;37.516;2023-05-07T00:45:32;4.03;;;2.28;;
74259;SDS011;62630;55.874;37.516;2023-05-07T00:47:59;4.50;;;2.58;;
74259;SDS011;62630;55.874;37.516;2023-05-07T00:50:28;4.97;;;2.08;;
74259;SDS011;62630;55.874;37.516;2023-05-07T00:52:55;3.00;;;2.15;;
74259;SDS011;62630;55.874;37.516;2023-05-07T00:55:21;7.18;;;2.50;;
74259;SDS011;62630;55.874;37.516;2023-05-07T00:57:48;6.93;;;2.63;;
74259;SDS011;62630;55.874;37.516;2023-05-07T01:00:15;5.68;;;2.90;;
74259;SDS011;62630;55.874;37.516;2023-05-07T01:02:41;7.28;;;2.17;;
74259;SDS011;62630;55.874;37.516;2023-05-07T01:05:08;7.60;;;2.88;;
74259;SDS011;62630;55.874;37.516;2023-05-07T01:07:36;5.28;;;2.90;;
74259;SDS011;62630;55.874;37.516;2023-05-07T01:10:05;8.90;;;2.60;;
74259;SDS011;62630;55.874;37.516;2023-05-07T01:12:32;6.65;;;2.90;;
74259;SDS011;62630;55.874;37.516;2023-05-07T01:14:59;8.52;;;3.28;;
74259;SDS011;62630;55.874;37.516;2023-05-07T01:17:25;7.28;;;3.20;;
74259;SDS011;62630;55.874;37.516;2023-05-07T01:19:51;8.77;;;3.20;;
74259;SDS011;62630;55.874;37.516;2023-05-07T01:22:23;9.00;;;3.72;;
74259;SDS011;62630;55.874;37.516;2023-05-07T01:24:56;7.10;;;2.78;;
74259;SDS011;62630;55.874;37.516;2023-05-07T01:27:22;7.03;;;2.42;;
74259;SDS011;62630;55.874;37.516;2023-05-07T01:29:47;6.75;;;3.10;;
74259;SDS011;62630;55.874;37.516;2023-05-07T01:32:13;4.30;;;2.28;;
74259;SDS011;62630;55.874;37.516;2023-05-07T01:39:32;6.72;;;2.80;;
74259;SDS011;62630;55.874;37.516;2023-05-07T01:41:58;7.28;;;2.70;;
74259;SDS011;62630;55.874;37.516;2023-05-07T01:44:24;8.95;;;3.08;;
74259;SDS011;62630;55.874;37.516;2023-05-07T01:46:51;5.85;;;2.70;;
74259;SDS011;62630;55.874;37.516;2023-05-07T01:49:17;7.03;;;3.03;;
74259;SDS011;62630;55.874;37.516;2023-05-07T01:51:43;7.10;;;3.03;;
74259;SDS011;62630;55.874;37.516;2023-05-07T01:54:09;6.30;;;2.90;;
74259;SDS011;62630;55.874;37.516;2023-05-07T01:56:35;6.47;;;2.80;;
74259;SDS011;62630;55.874;37.516;2023-05-07T01:59:00;4.60;;;2.63;;
74259;SDS011;62630;55.874;37.516;2023-05-07T02:01:27;8.02;;;3.00;;
74259;SDS011;62630;55.874;37.516;2023-05-07T02:03:52;5.45;;;2.92;;
74259;SDS011;62630;55.874;37.516;2023-05-07T02:06:18;12.02;;;3.22;;
74259;SDS011;62630;55.874;37.516;2023-05-07T02:08:44;4.68;;;2.90;;
74259;SDS011;62630;55.874;37.516;2023-05-07T02:11:10;8.88;;;2.75;;
74259;SDS011;62630;55.874;37.516;2023-05-07T02:13:35;5.72;;;2.65;;
74259;SDS011;62630;55.874;37.516;2023-05-07T02:16:01;6.57;;;2.45;;
74259;SDS011;62630;55.874;37.516;2023-05-07T02:18:27;6.05;;;2.45;;
74259;SDS011;62630;55.874;37.516;2023-05-07T02:20:53;7.10;;;2.70;;
74259;SDS011;62630;55.874;37.516;2023-05-07T02:23:18;6.18;;;2.45;;
74259;SDS011;62630;55.874;37.516;2023-05-07T02:25:44;3.88;;;2.50;;
74259;SDS011;62630;55.874;37.516;2023-05-07T02:28:11;4.43;;;2.40;;
74259;SDS011;62630;55.874;37.516;2023-05-07T02:30:36;4.78;;;2.10;;
74259;SDS011;62630;55.874;37.516;2023-05-07T02:33:02;5.07;;;2.85;;
74259;SDS011;62630;55.874;37.516;2023-05-07T02:35:28;6.45;;;2.97;;
74259;SDS011;62630;55.874;37.516;2023-05-07T02:37:53;8.27;;;3.08;;
74259;SDS011;62630;55.874;37.516;2023-05-07T02:40:19;6.80;;;2.50;;
74259;SDS011;62630;55.874;37.516;2023-05-07T02:42:45;8.32;;;3.20;;
74259;SDS011;62630;55.874;37.516;2023-05-07T02:45:10;8.50;;;3.22;;
74259;SDS011;62630;55.874;37.516;2023-05-07T02:47:36;9.88;;;2.95;;
74259;SDS011;62630;55.874;37.516;2023-05-07T02:50:02;7.90;;;3.50;;
74259;SDS011;62630;55.874;37.516;2023-05-07T02:52:28;10.13;;;3.13;;
74259;SDS011;62630;55.874;37.516;2023-05-07T02:54:54;7.95;;;3.25;;
74259;SDS011;62630;55.874;37.516;2023-05-07T02:57:20;6.60;;;3.63;;
74259;SDS011;62630;55.874;37.516;2023-05-07T02:59:45;5.28;;;2.72;;
74259;SDS011;62630;55.874;37.516;2023-05-07T03:02:11;5.22;;;2.92;;
74259;SDS011;62630;55.874;37.516;2023-05-07T03:04:37;5.93;;;2.85;;
74259;SDS011;62630;55.874;37.516;2023-05-07T03:07:03;7.85;;;2.85;;
74259;SDS011;62630;55.874;37.516;2023-05-07T03:09:29;6.07;;;2.67;;
74259;SDS011;62630;55.874;37.516;2023-05-07T03:11:55;7.35;;;2.90;;
74259;SDS011;62630;55.874;37.516;2023-05-07T03:14:21;4.72;;;2.40;;
74259;SDS011;62630;55.874;37.516;2023-05-07T03:16:47;4.93;;;2.45;;
74259;SDS011;62630;55.874;37.516;2023-05-07T03:19:12;6.15;;;2.03;;
74259;SDS011;62630;55.874;37.516;2023-05-07T03:21:38;5.13;;;2.60;;
74259;SDS011;62630;55.874;37.516;2023-05-07T03:24:03;4.63;;;2.10;;
74259;SDS011;62630;55.874;37.516;2023-05-07T03:26:29;4.50;;;2.50;;
74259;SDS011;62630;55.874;37.516;2023-05-07T03:28:55;4.53;;;2.83;;
74259;SDS011;62630;55.874;37.516;2023-05-07T03:31:20;5.25;;;3.08;;
74259;SDS011;62630;55.874;37.516;2023-05-07T03:33:56;5.82;;;2.05;;
74259;SDS011;62630;55.874;37.516;2023-05-07T03:36:23;4.22;;;2.17;;
74259;SDS011;62630;55.874;37.516;2023-05-07T03:38:49;3.60;;;2.20;;
74259;SDS011;62630;55.874;37.516;2023-05-07T03:41:15;3.20;;;2.15;;
74259;SDS011;62630;55.874;37.516;2023-05-07T03:43:40;3.40;;;2.22;;
74259;SDS011;62630;55.874;37.516;2023-05-07T03:46:06;5.65;;;2.67;;
74259;SDS011;62630;55.874;37.516;2023-05-07T03:48:32;5.22;;;2.33;;
74259;SDS011;62630;55.874;37.516;2023-05-07T03:50:58;5.55;;;2.78;;
74259;SDS011;62630;55.874;37.516;2023-05-07T03:53:24;6.97;;;2.65;;
74259;SDS011;62630;55.874;37.516;2023-05-07T03:55:52;4.30;;;2.42;;
74259;SDS011;62630;55.874;37.516;2023-05-07T03:58:18;5.25;;;2.00;;
74259;SDS011;62630;55.874;37.516;2023-05-07T04:00:44;5.20;;;2.25;;
74259;SDS011;62630;55.874;37.516;2023-05-07T04:03:09;3.92;;;2.10;;
74259;SDS011;62630;55.874;37.516;2023-05-07T04:05:35;2.58;;;1.80;;
74259;SDS011;62630;55.874;37.516;2023-05-07T04:08:01;5.00;;;2.05;;
74259;SDS011;62630;55.874;37.516;2023-05-07T04:10:27;9.50;;;2.30;;
74259;SDS011;62630;55.874;37.516;2023-05-07T04:12:54;7.90;;;2.75;;
74259;SDS011;62630;55.874;37.516;2023-05-07T04:15:20;5.38;;;2.67;;
74259;SDS011;62630;55.874;37.516;2023-05-07T04:17:45;7.13;;;2.72;;
74259;SDS011;62630;55.874;37.516;2023-05-07T04:20:14;7.55;;;2.75;;
74259;SDS011;62630;55.874;37.516;2023-05-07T04:22:41;4.15;;;2.40;;
74259;SDS011;62630;55.874;37.516;2023-05-07T04:25:08;5.82;;;2.25;;
74259;SDS011;62630;55.874;37.516;2023-05-07T04:27:35;2.78;;;1.70;;
74259;SDS011;62630;55.874;37.516;2023-05-07T04:30:01;4.13;;;2.13;;
74259;SDS011;62630;55.874;37.516;2023-05-07T04:32:27;4.20;;;2.08;;
74259;SDS011;62630;55.874;37.516;2023-05-07T04:34:54;4.97;;;1.83;;
74259;SDS011;62630;55.874;37.516;2023-05-07T04:37:20;4.15;;;1.58;;
74259;SDS011;62630;55.874;37.516;2023-05-07T04:39:48;6.80;;;2.65;;
74259;SDS011;62630;55.874;37.516;2023-05-07T04:42:17;5.03;;;2.60;;
74259;SDS011;62630;55.874;37.516;2023-05-07T04:44:43;3.40;;;1.90;;
74259;SDS011;62630;55.874;37.516;2023-05-07T04:47:10;4.18;;;1.80;;
74259;SDS011;62630;55.874;37.516;2023-05-07T04:49:36;5.70;;;2.40;;
74259;SDS011;62630;55.874;37.516;2023-05-07T04:52:03;1.73;;;1.17;;
74259;SDS011;62630;55.874;37.516;2023-05-07T04:54:28;5.18;;;1.73;;
74259;SDS011;62630;55.874;37.516;2023-05-07T04:56:54;4.40;;;1.83;;
74259;SDS011;62630;55.874;37.516;2023-05-07T04:59:20;7.78;;;1.70;;
74259;SDS011;62630;55.874;37.516;2023-05-07T05:01:46;5.30;;;1.90;;
74259;SDS011;62630;55.874;37.516;2023-05-07T05:04:11;4.18;;;1.63;;
74259;SDS011;62630;55.874;37.516;2023-05-07T05:06:40;3.38;;;1.75;;
74259;SDS011;62630;55.874;37.516;2023-05-07T05:09:06;4.22;;;1.65;;
74259;SDS011;62630;55.874;37.516;2023-05-07T05:11:32;3.90;;;1.55;;
74259;SDS011;62630;55.874;37.516;2023-05-07T05:13:58;5.85;;;1.80;;
74259;SDS011;62630;55.874;37.516;2023-05-07T05:16:25;5.68;;;2.05;;
74259;SDS011;62630;55.874;37.516;2023-05-07T05:18:51;4.40;;;2.20;;
74259;SDS011;62630;55.874;37.516;2023-05-07T05:21:17;7.35;;;1.73;;
74259;SDS011;62630;55.874;37.516;2023-05-07T05:23:43;2.58;;;1.27;;
74259;SDS011;62630;55.874;37.516;2023-05-07T05:26:08;3.58;;;1.52;;
74259;SDS011;62630;55.874;37.516;2023-05-07T05:28:34;2.47;;;1.20;;
74259;SDS011;62630;55.874;37.516;2023-05-07T05:30:59;1.67;;;1.00;;
74259;SDS011;62630;55.874;37.516;2023-05-07T05:33:25;2.50;;;1.15;;
74259;SDS011;62630;55.874;37.516;2023-05-07T05:35:50;1.75;;;1.02;;
74259;SDS011;62630;55.874;37.516;2023-05-07T05:38:16;2.83;;;0.88;;
74259;SDS011;62630;55.874;37.516;2023-05-07T05:40:41;1.70;;;1.08;;
74259;SDS011;62630;55.874;37.516;2023-05-07T05:43:07;3.55;;;1.30;;
74259;SDS011;62630;55.874;37.516;2023-05-07T05:45:32;3.72;;;1.08;;
74259;SDS011;62630;55.874;37.516;2023-05-07T05:47:59;1.30;;;0.88;;
74259;SDS011;62630;55.874;37.516;2023-05-07T05:50:25;1.83;;;0.80;;
74259;SDS011;62630;55.874;37.516;2023-05-07T05:52:52;1.60;;;0.90;;
74259;SDS011;62630;55.874;37.516;2023-05-07T05:55:17;4.28;;;0.73;;
74259;SDS011;62630;55.874;37.516;2023-05-07T05:57:43;0.95;;;0.70;;
74259;SDS011;62630;55.874;37.516;2023-05-07T06:00:09;2.15;;;0.80;;
74259;SDS011;62630;55.874;37.516;2023-05-07T06:02:34;2.35;;;0.80;;
74259;SDS011;62630;55.874;37.516;2023-05-07T06:05:00;1.02;;;0.80;;
74259;SDS011;62630;55.874;37.516;2023-05-07T06:07:26;3.22;;;1.00;;
74259;SDS011;62630;55.874;37.516;2023-05-07T06:09:51;2.67;;;1.00;;
74259;SDS011;62630;55.874;37.516;2023-05-07T06:12:17;2.03;;;0.70;;
74259;SDS011;62630;55.874;37.516;2023-05-07T06:14:43;2.08;;;0.90;;
74259;SDS011;62630;55.874;37.516;2023-05-07T06:17:08;1.52;;;0.57;;
74259;SDS011;62630;55.874;37.516;2023-05-07T06:19:34;0.60;;;0.60;;
74259;SDS011;62630;55.874;37.516;2023-05-07T06:22:00;1.95;;;0.70;;
74259;SDS011;62630;55.874;37.516;2023-05-07T06:24:26;1.30;;;0.90;;
74259;SDS011;62630;55.874;37.516;2023-05-07T06:26:52;1.05;;;0.82;;
74259;SDS011;62630;55.874;37.516;2023-05-07T06:29:18;1.00;;;0.70;;
74259;SDS011;62630;55.874;37.516;2023-05-07T06:31:43;1.58;;;0.93;;
74259;SDS011;62630;55.874;37.516;2023-05-07T06:34:09;2.25;;;0.70;;
74259;SDS011;62630;55.874;37.516;2023-05-07T06:36:39;1.33;;;0.68;;
74259;SDS011;62630;55.874;37.516;2023-05-07T06:39:05;1.17;;;0.82;;
74259;SDS011;62630;55.874;37.516;2023-05-07T06:41:30;1.73;;;1.00;;
74259;SDS011;62630;55.874;37.516;2023-05-07T06:43:57;3.53;;;1.00;;
74259;SDS011;62630;55.874;37.516;2023-05-07T06:46:23;2.70;;;1.00;;
74259;SDS011;62630;55.874;37.516;2023-05-07T06:48:49;4.50;;;1.33;;
74259;SDS011;62630;55.874;37.516;2023-05-07T06:51:14;5.00;;;0.90;;
74259;SDS011;62630;55.874;37.516;2023-05-07T06:53:40;2.38;;;1.10;;
74259;SDS011;62630;55.874;37.516;2023-05-07T06:56:05;3.13;;;1.00;;
74259;SDS011;62630;55.874;37.516;2023-05-07T06:58:31;10.82;;;1.10;;
74259;SDS011;62630;55.874;37.516;2023-05-07T07:00:57;1.05;;;0.70;;
74259;SDS011;62630;55.874;37.516;2023-05-07T07:03:31;1.42;;;0.85;;
74259;SDS011;62630;55.874;37.516;2023-05-07T07:05:57;1.38;;;0.90;;
74259;SDS011;62630;55.874;37.516;2023-05-07T07:08:22;0.77;;;0.70;;
74259;SDS011;62630;55.874;37.516;2023-05-07T07:10:48;1.58;;;0.82;;
74259;SDS011;62630;55.874;37.516;2023-05-07T07:13:14;2.53;;;0.70;;
74259;SDS011;62630;55.874;37.516;2023-05-07T07:15:39;0.50;;;0.50;;
74259;SDS011;62630;55.874;37.516;2023-05-07T07:18:08;1.48;;;0.60;;
74259;SDS011;62630;55.874;37.516;2023-05-07T07:20:33;3.40;;;0.80;;
74259;SDS011;62630;55.874;37.516;2023-05-07T07:22:59;4.93;;;0.75;;
74259;SDS011;62630;55.874;37.516;2023-05-07T07:25:24;1.02;;;0.77;;
74259;SDS011;62630;55.874;37.516;2023-05-07T07:27:50;1.08;;;0.77;;
74259;SDS011;62630;55.874;37.516;2023-05-07T07:30:15;2.05;;;0.73;;
74259;SDS011;62630;55.874;37.516;2023-05-07T07:32:41;0.85;;;0.73;;
74259;SDS011;62630;55.874;37.516;2023-05-07T07:35:07;2.90;;;0.70;;
74259;SDS011;62630;55.874;37.516;2023-05-07T07:37:33;2.90;;;1.00;;
74259;SDS011;62630;55.874;37.516;2023-05-07T07:39:59;3.25;;;0.80;;
74259;SDS011;62630;55.874;37.516;2023-05-07T07:42:25;0.80;;;0.80;;
74259;SDS011;62630;55.874;37.516;2023-05-07T07:44:51;4.78;;;1.38;;
74259;SDS011;62630;55.874;37.516;2023-05-07T07:47:17;1.02;;;0.80;;
74259;SDS011;62630;55.874;37.516;2023-05-07T07:52:52;3.63;;;0.85;;
74259;SDS011;62630;55.874;37.516;2023-05-07T07:55:19;2.22;;;0.90;;
74259;SDS011;62630;55.874;37.516;2023-05-07T07:57:47;1.90;;;0.70;;
74259;SDS011;62630;55.874;37.516;2023-05-07T08:00:13;1.02;;;0.55;;
74259;SDS011;62630;55.874;37.516;2023-05-07T08:02:40;2.05;;;0.70;;
74259;SDS011;62630;55.874;37.516;2023-05-07T08:05:06;3.33;;;0.73;;
74259;SDS011;62630;55.874;37.516;2023-05-07T08:07:31;0.70;;;0.55;;
74259;SDS011;62630;55.874;37.516;2023-05-07T08:09:57;2.40;;;0.80;;
74259;SDS011;62630;55.874;37.516;2023-05-07T08:12:23;1.60;;;0.90;;
74259;SDS011;62630;55.874;37.516;2023-05-07T08:14:49;3.47;;;1.00;;
74259;SDS011;62630;55.874;37.516;2023-05-07T08:17:14;1.85;;;0.70;;
74259;SDS011;62630;55.874;37.516;2023-05-07T08:19:42;1.50;;;0.90;;
74259;SDS011;62630;55.874;37.516;2023-05-07T08:22:09;1.00;;;0.70;;
74259;SDS011;62630;55.874;37.516;2023-05-07T08:24:36;2.45;;;0.60;;
74259;SDS011;62630;55.874;37.516;2023-05-07T08:27:03;1.02;;;0.75;;
74259;SDS011;62630;55.874;37.516;2023-05-07T08:29:41;1.83;;;0.90;;
74259;SDS011;62630;55.874;37.516;2023-05-07T08:32:06;1.45;;;0.60;;
74259;SDS011;62630;55.874;37.516;2023-05-07T08:34:32;0.90;;;0.60;;
74259;SDS011;62630;55.874;37.516;2023-05-07T08:37:00;1.52;;;0.70;;
74259;SDS011;62630;55.874;37.516;2023-05-07T08:39:26;1.15;;;0.63;;
74259;SDS011;62630;55.874;37.516;2023-05-07T08:41:52;6.15;;;1.00;;
74259;SDS011;62630;55.874;37.516;2023-05-07T08:44:23;2.50;;;0.70;;
74259;SDS011;62630;55.874;37.516;2023-05-07T08:46:53;4.13;;;1.00;;
74259;SDS011;62630;55.874;37.516;2023-05-07T08:49:20;1.10;;;0.73;;
74259;SDS011;62630;55.874;37.516;2023-05-07T08:51:46;3.25;;;0.98;;
74259;SDS011;62630;55.874;37.516;2023-05-07T08:54:12;3.50;;;0.75;;
74259;SDS011;62630;55.874;37.516;2023-05-07T08:56:41;2.22;;;0.77;;
74259;SDS011;62630;55.874;37.516;2023-05-07T08:59:07;2.03;;;0.85;;
74259;SDS011;62630;55.874;37.516;2023-05-07T09:01:32;2.67;;;0.80;;
74259;SDS011;62630;55.874;37.516;2023-05-07T09:04:00;0.80;;;0.70;;
74259;SDS011;62630;55.874;37.516;2023-05-07T09:06:26;2.28;;;0.52;;
74259;SDS011;62630;55.874;37.516;2023-05-07T09:08:52;3.10;;;0.90;;
74259;SDS011;62630;55.874;37.516;2023-05-07T09:11:20;1.63;;;0.77;;
74259;SDS011;62630;55.874;37.516;2023-05-07T09:13:46;3.40;;;0.93;;
74259;SDS011;62630;55.874;37.516;2023-05-07T09:16:12;1.05;;;0.57;;
74259;SDS011;62630;55.874;37.516;2023-05-07T09:18:42;1.52;;;0.70;;
74259;SDS011;62630;55.874;37.516;2023-05-07T09:21:14;2.25;;;0.68;;
74259;SDS011;62630;55.874;37.516;2023-05-07T09:23:41;2.67;;;0.77;;
74259;SDS011;62630;55.874;37.516;2023-05-07T09:26:07;1.08;;;0.50;;
74259;SDS011;62630;55.874;37.516;2023-05-07T09:28:40;0.95;;;0.65;;
74259;SDS011;62630;55.874;37.516;2023-05-07T09:31:07;1.25;;;0.63;;
74259;SDS011;62630;55.874;37.516;2023-05-07T09:33:33;0.75;;;0.57;;
74259;SDS011;62630;55.874;37.516;2023-05-07T09:36:45;2.25;;;0.98;;
74259;SDS011;62630;55.874;37.516;2023-05-07T09:38:49;1.48;;;0.70;;
74259;SDS011;62630;55.874;37.516;2023-05-07T09:41:15;2.92;;;1.38;;
74259;SDS011;62630;55.874;37.516;2023-05-07T09:43:40;1.50;;;0.93;;
74259;SDS011;62630;55.874;37.516;2023-05-07T09:46:11;4.22;;;0.60;;
74259;SDS011;62630;55.874;37.516;2023-05-07T09:48:38;4.25;;;0.80;;
74259;SDS011;62630;55.874;37.516;2023-05-07T09:51:16;2.28;;;0.85;;
74259;SDS011;62630;55.874;37.516;2023-05-07T09:53:48;2.92;;;0.70;;
74259;SDS011;62630;55.874;37.516;2023-05-07T09:56:17;1.20;;;0.60;;
74259;SDS011;62630;55.874;37.516;2023-05-07T09:58:43;1.13;;;0.63;;
74259;SDS011;62630;55.874;37.516;2023-05-07T10:01:10;2.08;;;0.90;;
74259;SDS011;62630;55.874;37.516;2023-05-07T10:03:37;0.75;;;0.70;;
74259;SDS011;62630;55.874;37.516;2023-05-07T10:06:06;5.40;;;1.00;;
74259;SDS011;62630;55.874;37.516;2023-05-07T10:08:37;1.15;;;0.80;;
74259;SDS011;62630;55.874;37.516;2023-05-07T10:11:05;1.60;;;0.88;;
74259;SDS011;62630;55.874;37.516;2023-05-07T10:13:32;2.88;;;0.80;;
74259;SDS011;62630;55.874;37.516;2023-05-07T10:16:01;1.63;;;0.90;;
74259;SDS011;62630;55.874;37.516;2023-05-07T10:18:28;2.83;;;0.80;;
74259;SDS011;62630;55.874;37.516;2023-05-07T10:20:59;2.72;;;0.75;;
74259;SDS011;62630;55.874;37.516;2023-05-07T10:23:40;2.15;;;0.90;;
74259;SDS011;62630;55.874;37.516;2023-05-07T10:26:09;2.80;;;0.98;;
74259;SDS011;62630;55.874;37.516;2023-05-07T10:28:40;1.52;;;0.68;;
74259;SDS011;62630;55.874;37.516;2023-05-07T10:31:46;2.28;;;0.90;;
74259;SDS011;62630;55.874;37.516;2023-05-07T10:34:13;2.03;;;0.80;;
74259;SDS011;62630;55.874;37.516;2023-05-07T10:36:42;0.63;;;0.55;;
74259;SDS011;62630;55.874;37.516;2023-05-07T10:39:09;1.25;;;0.80;;
74259;SDS011;62630;55.874;37.516;2023-05-07T10:41:35;1.65;;;1.00;;
74259;SDS011;62630;55.874;37.516;2023-05-07T10:44:01;2.53;;;0.88;;
74259;SDS011;62630;55.874;37.516;2023-05-07T10:46:27;2.78;;;0.70;;
74259;SDS011;62630;55.874;37.516;2023-05-07T10:51:29;1.33;;;0.80;;
74259;SDS011;62630;55.874;37.516;2023-05-07T10:56:40;3.97;;;0.82;;
74259;SDS011;62630;55.874;37.516;2023-05-07T11:04:23;0.93;;;0.77;;
74259;SDS011;62630;55.874;37.516;2023-05-07T11:15:01;2.83;;;1.38;;
74259;SDS011;62630;55.874;37.516;2023-05-07T11:17:34;1.15;;;0.80;;
74259;SDS011;62630;55.874;37.516;2023-05-07T11:20:03;2.90;;;0.70;;
74259;SDS011;62630;55.874;37.516;2023-05-07T11:25:04;1.60;;;0.90;;
74259;SDS011;62630;55.874;37.516;2023-05-07T11:27:31;1.33;;;0.80;;
74259;SDS011;62630;55.874;37.516;2023-05-07T11:29:57;5.40;;;0.98;;
74259;SDS011;62630;55.874;37.516;2023-05-07T11:32:25;1.17;;;0.65;;
74259;SDS011;62630;55.874;37.516;2023-05-07T11:34:53;3.45;;;1.00;;
74259;SDS011;62630;55.874;37.516;2023-05-07T11:37:23;4.55;;;1.00;;
74259;SDS011;62630;55.874;37.516;2023-05-07T11:39:50;1.73;;;0.80;;
74259;SDS011;62630;55.874;37.516;2023-05-07T11:42:30;1.40;;;0.77;;
74259;SDS011;62630;55.874;37.516;2023-05-07T11:44:57;2.20;;;1.00;;
74259;SDS011;62630;55.874;37.516;2023-05-07T11:47:23;1.35;;;0.80;;
74259;SDS011;62630;55.874;37.516;2023-05-07T11:49:51;2.03;;;1.00;;
74259;SDS011;62630;55.874;37.516;2023-05-07T11:54:50;4.88;;;1.60;;
74259;SDS011;62630;55.874;37.516;2023-05-07T11:57:15;4.25;;;1.10;;
74259;SDS011;62630;55.874;37.516;2023-05-07T11:59:41;1.50;;;0.70;;
74259;SDS011;62630;55.874;37.516;2023-05-07T12:02:09;2.75;;;1.10;;
74259;SDS011;62630;55.874;37.516;2023-05-07T12:04:35;1.88;;;0.90;;
74259;SDS011;62630;55.874;37.516;2023-05-07T12:07:01;1.00;;;0.75;;
74259;SDS011;62630;55.874;37.516;2023-05-07T12:09:26;1.15;;;0.73;;
74259;SDS011;62630;55.874;37.516;2023-05-07T12:11:52;1.27;;;0.93;;
74259;SDS011;62630;55.874;37.516;2023-05-07T12:14:18;2.50;;;1.55;;
74259;SDS011;62630;55.874;37.516;2023-05-07T12:16:43;1.83;;;0.98;;
74259;SDS011;62630;55.874;37.516;2023-05-07T12:19:10;3.75;;;1.15;;
74259;SDS011;62630;55.874;37.516;2023-05-07T12:21:39;2.55;;;1.10;;
74259;SDS011;62630;55.874;37.516;2023-05-07T12:24:06;1.25;;;0.82;;
74259;SDS011;62630;55.874;37.516;2023-05-07T12:26:36;1.65;;;0.90;;
74259;SDS011;62630;55.874;37.516;2023-05-07T12:29:03;3.80;;;1.23;;
74259;SDS011;62630;55.874;37.516;2023-05-07T12:31:28;6.47;;;1.95;;
74259;SDS011;62630;55.874;37.516;2023-05-07T12:33:55;1.92;;;1.00;;
74259;SDS011;62630;55.874;37.516;2023-05-07T12:36:21;2.67;;;0.80;;
74259;SDS011;62630;55.874;37.516;2023-05-07T12:38:49;3.78;;;0.80;;
74259;SDS011;62630;55.874;37.516;2023-05-07T12:41:14;2.72;;;0.90;;
74259;SDS011;62630;55.874;37.516;2023-05-07T12:43:42;1.38;;;0.90;;
74259;SDS011;62630;55.874;37.516;2023-05-07T12:46:09;1.98;;;0.70;;
74259;SDS011;62630;55.874;37.516;2023-05-07T12:48:38;3.67;;;1.10;;
74259;SDS011;62630;55.874;37.516;2023-05-07T12:51:11;3.22;;;1.13;;
74259;SDS011;62630;55.874;37.516;2023-05-07T12:53:41;1.38;;;0.90;;
74259;SDS011;62630;55.874;37.516;2023-05-07T12:56:07;1.00;;;0.90;;
74259;SDS011;62630;55.874;37.516;2023-05-07T12:58:33;2.65;;;0.85;;
74259;SDS011;62630;55.874;37.516;2023-05-07T13:01:01;2.58;;;0.85;;
74259;SDS011;62630;55.874;37.516;2023-05-07T13:03:30;2.45;;;0.90;;
74259;SDS011;62630;55.874;37.516;2023-05-07T13:06:05;1.27;;;1.00;;
74259;SDS011;62630;55.874;37.516;2023-05-07T13:08:35;3.47;;;0.90;;
74259;SDS011;62630;55.874;37.516;2023-05-07T13:11:03;2.13;;;1.15;;
74259;SDS011;62630;55.874;37.516;2023-05-07T13:13:33;1.65;;;1.08;;
74259;SDS011;62630;55.874;37.516;2023-05-07T13:16:00;2.22;;;1.00;;
74259;SDS011;62630;55.874;37.516;2023-05-07T13:18:27;1.35;;;0.95;;
74259;SDS011;62630;55.874;37.516;2023-05-07T13:20:54;3.28;;;1.00;;
74259;SDS011;62630;55.874;37.516;2023-05-07T13:23:20;2.92;;;1.00;;
74259;SDS011;62630;55.874;37.516;2023-05-07T13:25:46;1.70;;;0.77;;
74259;SDS011;62630;55.874;37.516;2023-05-07T13:28:12;1.75;;;0.90;;
74259;SDS011;62630;55.874;37.516;2023-05-07T13:30:38;1.92;;;0.77;;
74259;SDS011;62630;55.874;37.516;2023-05-07T13:33:04;1.88;;;1.15;;
74259;SDS011;62630;55.874;37.516;2023-05-07T13:35:29;2.80;;;1.20;;
74259;SDS011;62630;55.874;37.516;2023-05-07T13:37:55;1.05;;;0.90;;
74259;SDS011;62630;55.874;37.516;2023-05-07T13:40:21;3.92;;;0.88;;
74259;SDS011;62630;55.874;37.516;2023-05-07T13:42:48;4.13;;;1.13;;
74259;SDS011;62630;55.874;37.516;2023-05-07T13:45:14;1.27;;;0.75;;
74259;SDS011;62630;55.874;37.516;2023-05-07T13:47:41;4.85;;;1.15;;
74259;SDS011;62630;55.874;37.516;2023-05-07T13:50:07;0.90;;;0.82;;
74259;SDS011;62630;55.874;37.516;2023-05-07T13:52:33;1.67;;;0.75;;
74259;SDS011;62630;55.874;37.516;2023-05-07T13:54:59;1.25;;;0.75;;
74259;SDS011;62630;55.874;37.516;2023-05-07T13:57:25;2.42;;;1.05;;
74259;SDS011;62630;55.874;37.516;2023-05-07T13:59:50;2.05;;;0.90;;
74259;SDS011;62630;55.874;37.516;2023-05-07T14:02:16;6.80;;;1.15;;
74259;SDS011;62630;55.874;37.516;2023-05-07T14:04:41;2.70;;;1.10;;
74259;SDS011;62630;55.874;37.516;2023-05-07T14:07:07;2.30;;;1.00;;
74259;SDS011;62630;55.874;37.516;2023-05-07T14:09:33;2.22;;;0.98;;
74259;SDS011;62630;55.874;37.516;2023-05-07T14:11:58;2.58;;;1.15;;
74259;SDS011;62630;55.874;37.516;2023-05-07T14:14:24;2.63;;;1.30;;
74259;SDS011;62630;55.874;37.516;2023-05-07T14:16:50;1.95;;;0.80;;
74259;SDS011;62630;55.874;37.516;2023-05-07T14:19:15;2.90;;;0.88;;
74259;SDS011;62630;55.874;37.516;2023-05-07T14:21:41;1.88;;;1.00;;
74259;SDS011;62630;55.874;37.516;2023-05-07T14:24:06;1.50;;;1.05;;
74259;SDS011;62630;55.874;37.516;2023-05-07T14:26:33;3.85;;;1.13;;
74259;SDS011;62630;55.874;37.516;2023-05-07T14:28:59;3.25;;;1.23;;
74259;SDS011;62630;55.874;37.516;2023-05-07T14:31:25;2.05;;;1.17;;
74259;SDS011;62630;55.874;37.516;2023-05-07T14:33:51;1.42;;;0.98;;
74259;SDS011;62630;55.874;37.516;2023-05-07T14:36:17;1.75;;;1.02;;
74259;SDS011;62630;55.874;37.516;2023-05-07T14:38:45;4.50;;;1.42;;
74259;SDS011;62630;55.874;37.516;2023-05-07T14:41:11;1.63;;;1.10;;
74259;SDS011;62630;55.874;37.516;2023-05-07T14:43:37;3.45;;;1.23;;
74259;SDS011;62630;55.874;37.516;2023-05-07T14:46:02;2.33;;;1.13;;
74259;SDS011;62630;55.874;37.516;2023-05-07T14:48:28;2.53;;;0.85;;
74259;SDS011;62630;55.874;37.516;2023-05-07T14:50:54;2.58;;;1.10;;
74259;SDS011;62630;55.874;37.516;2023-05-07T14:53:19;3.38;;;1.20;;
74259;SDS011;62630;55.874;37.516;2023-05-07T14:55:48;0.70;;;0.60;;
74259;SDS011;62630;55.874;37.516;2023-05-07T14:58:13;1.60;;;0.88;;
74259;SDS011;62630;55.874;37.516;2023-05-07T15:00:39;1.27;;;0.63;;
74259;SDS011;62630;55.874;37.516;2023-05-07T15:03:09;1.08;;;0.63;;